SBI2305 UNKL-UNNT
Flight info
| Callsign | SBI2305 |
|---|---|
| Flight time | N/A |
| Altitude | 34000 |
| Route | APRUS2F APRUS B926 NATIR NATIR1N |
| Aircraft | A320/M-SDE3FGHIRWY/LB1 |
Departure
| Time | 2026-05-01 08:21 |
|---|---|
| Airport | Krasnoyarsk International Airport (UNKL) |
Arrival
| Time | N/A |
|---|---|
| Airport | Novosibirsk Tolmachevo Airport (UNNT) |
| Time | Latitude | Longitude | Altitude | Speed | Heading |
|---|---|---|---|---|---|
| 2026-05-01 07:45 | 56.17940 | 92.48531 | 951 ft | 0 kts | 22° |
| 2026-05-01 08:06 | 56.17906 | 92.48507 | 950 ft | 1 kts | 22° |
| 2026-05-01 08:07 | 56.17881 | 92.48477 | 952 ft | 3 kts | 56° |
| 2026-05-01 08:08 | 56.17876 | 92.48445 | 952 ft | 3 kts | 107° |
| 2026-05-01 08:08 | 56.17879 | 92.48428 | 951 ft | 0 kts | 107° |
| 2026-05-01 08:10 | 56.17878 | 92.48428 | 951 ft | 1 kts | 107° |
| 2026-05-01 08:10 | 56.17851 | 92.48460 | 950 ft | 3 kts | 169° |
| 2026-05-01 08:11 | 56.17720 | 92.48474 | 951 ft | 17 kts | 120° |
| 2026-05-01 08:11 | 56.17631 | 92.48845 | 951 ft | 15 kts | 113° |
| 2026-05-01 08:12 | 56.17544 | 92.49212 | 951 ft | 19 kts | 113° |
| 2026-05-01 08:12 | 56.17499 | 92.49404 | 949 ft | 11 kts | 113° |
| 2026-05-01 08:12 | 56.17410 | 92.49772 | 950 ft | 21 kts | 114° |
| 2026-05-01 08:13 | 56.17368 | 92.49948 | 950 ft | 16 kts | 113° |
| 2026-05-01 08:13 | 56.17317 | 92.50159 | 951 ft | 21 kts | 113° |
| 2026-05-01 08:13 | 56.17238 | 92.50483 | 951 ft | 16 kts | 113° |
| 2026-05-01 08:14 | 56.17188 | 92.50695 | 951 ft | 21 kts | 113° |
| 2026-05-01 08:14 | 56.17136 | 92.50913 | 950 ft | 13 kts | 113° |
| 2026-05-01 08:14 | 56.17095 | 92.51088 | 950 ft | 18 kts | 113° |
| 2026-05-01 08:14 | 56.17040 | 92.51318 | 951 ft | 22 kts | 114° |
| 2026-05-01 08:15 | 56.16980 | 92.51571 | 950 ft | 22 kts | 112° |
| 2026-05-01 08:15 | 56.16906 | 92.51876 | 950 ft | 19 kts | 112° |
| 2026-05-01 08:15 | 56.16855 | 92.51958 | 951 ft | 9 kts | 157° |
| 2026-05-01 08:16 | 56.16791 | 92.52002 | 951 ft | 0 kts | 159° |
| 2026-05-01 08:17 | 56.16785 | 92.52006 | 951 ft | 3 kts | 159° |
| 2026-05-01 08:18 | 56.16752 | 92.52029 | 951 ft | 7 kts | 159° |
| 2026-05-01 08:18 | 56.16672 | 92.51933 | 953 ft | 13 kts | 290° |
| 2026-05-01 08:19 | 56.16684 | 92.51876 | 952 ft | 0 kts | 292° |
| 2026-05-01 08:20 | 56.16687 | 92.51867 | 953 ft | 5 kts | 292° |
| 2026-05-01 08:20 | 56.16796 | 92.51404 | 950 ft | 76 kts | 293° |
| 2026-05-01 08:21 | 56.17083 | 92.50181 | 949 ft | 134 kts | 293° |
| 2026-05-01 08:21 | 56.17508 | 92.48382 | 961 ft | 176 kts | 292° |
| 2026-05-01 08:21 | 56.18016 | 92.46338 | 1533 ft | 177 kts | 295° |
| 2026-05-01 08:21 | 56.18507 | 92.44322 | 2286 ft | 179 kts | 291° |
| 2026-05-01 08:22 | 56.19012 | 92.42168 | 2660 ft | 198 kts | 292° |
| 2026-05-01 08:22 | 56.19574 | 92.39761 | 2920 ft | 220 kts | 292° |
| 2026-05-01 08:22 | 56.20193 | 92.37126 | 3410 ft | 234 kts | 292° |
| 2026-05-01 08:22 | 56.20826 | 92.34438 | 4067 ft | 244 kts | 292° |
| 2026-05-01 08:23 | 56.21438 | 92.31499 | 4755 ft | 257 kts | 281° |
| 2026-05-01 08:23 | 56.21417 | 92.28269 | 5567 ft | 263 kts | 255° |
| 2026-05-01 08:23 | 56.20811 | 92.25134 | 6382 ft | 267 kts | 249° |
| 2026-05-01 08:23 | 56.20141 | 92.22023 | 7237 ft | 269 kts | 250° |
| 2026-05-01 08:24 | 56.19454 | 92.18876 | 8039 ft | 272 kts | 249° |
| 2026-05-01 08:24 | 56.18757 | 92.15690 | 8903 ft | 276 kts | 250° |
| 2026-05-01 08:24 | 56.18052 | 92.12452 | 9760 ft | 279 kts | 251° |
| 2026-05-01 08:24 | 56.17344 | 92.09189 | 10473 ft | 286 kts | 251° |
| 2026-05-01 08:25 | 56.16595 | 92.05719 | 10709 ft | 309 kts | 251° |
| 2026-05-01 08:25 | 56.15791 | 92.01988 | 10953 ft | 330 kts | 251° |
| 2026-05-01 08:25 | 56.14958 | 91.98143 | 11538 ft | 337 kts | 251° |
| 2026-05-01 08:25 | 56.14101 | 91.94211 | 12230 ft | 340 kts | 251° |
| 2026-05-01 08:26 | 56.13233 | 91.90244 | 12921 ft | 343 kts | 251° |
| 2026-05-01 08:26 | 56.12359 | 91.86246 | 13645 ft | 345 kts | 251° |
| 2026-05-01 08:26 | 56.11481 | 91.82230 | 14299 ft | 348 kts | 252° |
| 2026-05-01 08:26 | 56.10593 | 91.78181 | 14907 ft | 351 kts | 252° |
| 2026-05-01 08:27 | 56.09697 | 91.74105 | 15526 ft | 353 kts | 252° |
| 2026-05-01 08:27 | 56.08791 | 91.69988 | 16126 ft | 356 kts | 252° |
| 2026-05-01 08:27 | 56.07879 | 91.65847 | 16726 ft | 358 kts | 252° |
| 2026-05-01 08:27 | 56.06959 | 91.61684 | 17304 ft | 361 kts | 252° |
| 2026-05-01 08:28 | 56.06031 | 91.57490 | 17868 ft | 364 kts | 252° |
| 2026-05-01 08:28 | 56.05096 | 91.53265 | 18091 ft | 366 kts | 252° |
| 2026-05-01 08:28 | 56.04167 | 91.49082 | 18126 ft | 365 kts | 252° |
| 2026-05-01 08:28 | 56.03225 | 91.44857 | 18121 ft | 365 kts | 252° |
| 2026-05-01 08:29 | 56.02282 | 91.40636 | 18130 ft | 365 kts | 252° |
| 2026-05-01 08:29 | 56.01335 | 91.36421 | 18136 ft | 366 kts | 252° |
| 2026-05-01 08:29 | 56.00384 | 91.32202 | 18120 ft | 366 kts | 252° |
| 2026-05-01 08:29 | 55.99437 | 91.27991 | 18121 ft | 365 kts | 252° |
| 2026-05-01 08:30 | 55.98521 | 91.23767 | 18121 ft | 364 kts | 256° |
| 2026-05-01 08:30 | 55.97930 | 91.19393 | 18117 ft | 361 kts | 262° |
| 2026-05-01 08:30 | 55.97425 | 91.15005 | 18125 ft | 361 kts | 262° |
| 2026-05-01 08:30 | 55.96913 | 91.10616 | 18120 ft | 360 kts | 262° |
| 2026-05-01 08:31 | 55.96399 | 91.06240 | 18122 ft | 360 kts | 261° |
| 2026-05-01 08:31 | 55.95882 | 91.01861 | 18117 ft | 360 kts | 261° |
| 2026-05-01 08:31 | 55.95362 | 90.97493 | 18126 ft | 360 kts | 261° |
| 2026-05-01 08:31 | 55.94841 | 90.93125 | 18122 ft | 360 kts | 261° |
| 2026-05-01 08:32 | 55.94318 | 90.88760 | 18100 ft | 360 kts | 261° |
| 2026-05-01 08:32 | 55.93793 | 90.84398 | 18108 ft | 360 kts | 261° |
| 2026-05-01 08:32 | 55.93269 | 90.80031 | 18102 ft | 360 kts | 261° |
| 2026-05-01 08:32 | 55.92745 | 90.75661 | 18100 ft | 360 kts | 261° |
| 2026-05-01 08:33 | 55.92220 | 90.71293 | 18115 ft | 360 kts | 261° |
| 2026-05-01 08:33 | 55.91700 | 90.66986 | 18102 ft | 360 kts | 261° |
| 2026-05-01 08:33 | 55.91169 | 90.62625 | 18101 ft | 360 kts | 261° |
| 2026-05-01 08:33 | 55.90637 | 90.58273 | 18108 ft | 360 kts | 261° |
| 2026-05-01 08:34 | 55.90104 | 90.53912 | 18109 ft | 359 kts | 261° |
| 2026-05-01 08:34 | 55.89568 | 90.49541 | 18565 ft | 362 kts | 261° |
| 2026-05-01 08:34 | 55.89029 | 90.45145 | 19077 ft | 364 kts | 261° |
| 2026-05-01 08:34 | 55.88486 | 90.40727 | 19556 ft | 367 kts | 261° |
| 2026-05-01 08:35 | 55.87935 | 90.36284 | 20037 ft | 369 kts | 261° |
| 2026-05-01 08:35 | 55.87376 | 90.31795 | 20505 ft | 372 kts | 261° |
| 2026-05-01 08:35 | 55.86814 | 90.27280 | 20969 ft | 374 kts | 261° |
| 2026-05-01 08:35 | 55.86249 | 90.22747 | 21416 ft | 377 kts | 261° |
| 2026-05-01 08:36 | 55.85676 | 90.18172 | 21839 ft | 380 kts | 261° |
| 2026-05-01 08:36 | 55.85095 | 90.13564 | 22283 ft | 383 kts | 261° |
| 2026-05-01 08:36 | 55.84508 | 90.08923 | 22727 ft | 385 kts | 261° |
| 2026-05-01 08:36 | 55.83919 | 90.04256 | 23147 ft | 388 kts | 262° |
| 2026-05-01 08:37 | 55.83322 | 89.99546 | 23564 ft | 391 kts | 261° |
| 2026-05-01 08:37 | 55.82730 | 89.94894 | 23919 ft | 392 kts | 261° |
| 2026-05-01 08:37 | 55.82122 | 89.90145 | 24285 ft | 394 kts | 261° |
| 2026-05-01 08:37 | 55.81510 | 89.85386 | 24638 ft | 396 kts | 261° |
| 2026-05-01 08:38 | 55.80882 | 89.80528 | 24986 ft | 398 kts | 261° |
| 2026-05-01 08:38 | 55.80271 | 89.75788 | 25327 ft | 400 kts | 261° |
| 2026-05-01 08:38 | 55.79646 | 89.70952 | 25668 ft | 402 kts | 261° |
| 2026-05-01 08:38 | 55.79015 | 89.66102 | 25994 ft | 404 kts | 261° |
| 2026-05-01 08:39 | 55.78377 | 89.61232 | 26319 ft | 406 kts | 261° |
| 2026-05-01 08:39 | 55.77732 | 89.56333 | 26597 ft | 409 kts | 261° |
| 2026-05-01 08:39 | 55.77084 | 89.51407 | 26916 ft | 411 kts | 261° |
| 2026-05-01 08:39 | 55.76428 | 89.46448 | 27239 ft | 413 kts | 261° |
| 2026-05-01 08:40 | 55.75104 | 89.36469 | 27892 ft | 417 kts | 261° |
| 2026-05-01 08:40 | 55.74440 | 89.31454 | 28184 ft | 419 kts | 261° |
| 2026-05-01 08:40 | 55.73768 | 89.26391 | 28483 ft | 421 kts | 261° |
| 2026-05-01 08:41 | 55.73091 | 89.21326 | 28773 ft | 423 kts | 261° |
| 2026-05-01 08:41 | 55.72407 | 89.16250 | 29060 ft | 424 kts | 261° |
| 2026-05-01 08:41 | 55.71715 | 89.11157 | 29337 ft | 426 kts | 261° |
| 2026-05-01 08:41 | 55.71017 | 89.06036 | 29604 ft | 428 kts | 261° |
| 2026-05-01 08:42 | 55.70319 | 89.00892 | 29867 ft | 430 kts | 261° |
| 2026-05-01 08:42 | 55.69615 | 88.95723 | 30125 ft | 431 kts | 261° |
| 2026-05-01 08:42 | 55.68919 | 88.90612 | 30393 ft | 431 kts | 261° |
| 2026-05-01 08:42 | 55.68206 | 88.85390 | 30705 ft | 430 kts | 260° |
| 2026-05-01 08:43 | 55.67508 | 88.80297 | 31039 ft | 429 kts | 260° |
| 2026-05-01 08:43 | 55.66804 | 88.75179 | 31368 ft | 428 kts | 260° |
| 2026-05-01 08:43 | 55.66100 | 88.70064 | 31679 ft | 427 kts | 260° |
| 2026-05-01 08:43 | 55.65397 | 88.64978 | 32002 ft | 426 kts | 260° |
| 2026-05-01 08:44 | 55.64687 | 88.59872 | 32318 ft | 425 kts | 260° |
| 2026-05-01 08:44 | 55.63979 | 88.54792 | 32642 ft | 424 kts | 260° |
| 2026-05-01 08:44 | 55.63273 | 88.49735 | 32956 ft | 423 kts | 260° |
| 2026-05-01 08:44 | 55.62565 | 88.44687 | 33270 ft | 422 kts | 260° |
| 2026-05-01 08:45 | 55.61856 | 88.39646 | 33585 ft | 421 kts | 259° |
| 2026-05-01 08:45 | 55.61145 | 88.34617 | 33894 ft | 421 kts | 259° |
| 2026-05-01 08:45 | 55.60441 | 88.29655 | 34061 ft | 421 kts | 259° |
| 2026-05-01 08:45 | 55.59731 | 88.24650 | 34096 ft | 419 kts | 259° |
| 2026-05-01 08:46 | 55.58304 | 88.14672 | 34094 ft | 418 kts | 259° |
| 2026-05-01 08:46 | 55.56877 | 88.04709 | 34094 ft | 418 kts | 259° |
| 2026-05-01 08:47 | 55.55437 | 87.94736 | 34092 ft | 418 kts | 259° |
| 2026-05-01 08:47 | 55.53989 | 87.84782 | 34092 ft | 418 kts | 259° |
| 2026-05-01 08:48 | 55.52533 | 87.74832 | 34086 ft | 418 kts | 258° |
| 2026-05-01 08:48 | 55.51069 | 87.64893 | 34093 ft | 418 kts | 258° |
| 2026-05-01 08:49 | 55.49596 | 87.54983 | 34079 ft | 417 kts | 258° |
| 2026-05-01 08:49 | 55.48117 | 87.45071 | 34081 ft | 418 kts | 258° |
| 2026-05-01 08:50 | 55.46625 | 87.35165 | 34085 ft | 418 kts | 258° |
| 2026-05-01 08:50 | 55.45116 | 87.25255 | 34092 ft | 419 kts | 258° |
| 2026-05-01 08:51 | 55.43605 | 87.15403 | 34095 ft | 419 kts | 257° |
| 2026-05-01 08:51 | 55.42079 | 87.05499 | 34104 ft | 419 kts | 257° |
| 2026-05-01 08:52 | 55.40548 | 86.95611 | 34103 ft | 419 kts | 257° |
| 2026-05-01 08:52 | 55.39010 | 86.85730 | 34106 ft | 419 kts | 257° |
| 2026-05-01 08:53 | 55.37466 | 86.75854 | 34110 ft | 419 kts | 257° |
| 2026-05-01 08:53 | 55.35919 | 86.65987 | 34104 ft | 419 kts | 257° |
| 2026-05-01 08:54 | 55.34361 | 86.56140 | 34105 ft | 418 kts | 257° |
| 2026-05-01 08:54 | 55.32791 | 86.46303 | 34108 ft | 418 kts | 257° |
| 2026-05-01 08:55 | 55.31215 | 86.36475 | 34109 ft | 418 kts | 257° |
| 2026-05-01 08:55 | 55.29634 | 86.26676 | 34108 ft | 418 kts | 257° |
| 2026-05-01 08:56 | 55.28041 | 86.16850 | 34105 ft | 418 kts | 257° |
| 2026-05-01 08:56 | 55.26870 | 86.06914 | 34109 ft | 415 kts | 267° |
| 2026-05-01 08:57 | 55.26405 | 85.96830 | 34109 ft | 415 kts | 266° |
| 2026-05-01 08:57 | 55.25922 | 85.86802 | 34111 ft | 415 kts | 266° |
| 2026-05-01 08:58 | 55.25431 | 85.76719 | 34106 ft | 415 kts | 266° |
| 2026-05-01 08:58 | 55.24918 | 85.66641 | 34108 ft | 415 kts | 266° |
| 2026-05-01 08:59 | 55.24397 | 85.56567 | 33960 ft | 416 kts | 266° |
| 2026-05-01 08:59 | 55.24138 | 85.51523 | 33684 ft | 415 kts | 266° |
| 2026-05-01 08:59 | 55.23878 | 85.46482 | 33415 ft | 416 kts | 266° |
| 2026-05-01 09:00 | 55.23616 | 85.41427 | 33143 ft | 416 kts | 266° |
| 2026-05-01 09:00 | 55.23352 | 85.36378 | 32869 ft | 416 kts | 266° |
| 2026-05-01 09:00 | 55.23084 | 85.31327 | 32607 ft | 417 kts | 266° |
| 2026-05-01 09:00 | 55.22813 | 85.26271 | 32346 ft | 417 kts | 266° |
| 2026-05-01 09:01 | 55.22542 | 85.21207 | 32088 ft | 417 kts | 266° |
| 2026-05-01 09:01 | 55.22267 | 85.16144 | 31833 ft | 418 kts | 265° |
| 2026-05-01 09:01 | 55.21989 | 85.11070 | 31574 ft | 417 kts | 265° |
| 2026-05-01 09:01 | 55.21805 | 85.07734 | 31407 ft | 416 kts | 265° |
| 2026-05-01 09:02 | 55.21525 | 85.02699 | 31152 ft | 414 kts | 265° |
| 2026-05-01 09:02 | 55.21243 | 84.97686 | 30900 ft | 412 kts | 265° |
| 2026-05-01 09:02 | 55.20873 | 84.91074 | 30571 ft | 410 kts | 265° |
| 2026-05-01 09:02 | 55.20592 | 84.86120 | 30330 ft | 408 kts | 265° |
| 2026-05-01 09:03 | 55.20403 | 84.82848 | 30159 ft | 407 kts | 265° |
| 2026-05-01 09:03 | 55.20116 | 84.77925 | 29889 ft | 405 kts | 265° |
| 2026-05-01 09:03 | 55.19829 | 84.73032 | 29605 ft | 403 kts | 265° |
| 2026-05-01 09:03 | 55.19390 | 84.68193 | 29326 ft | 403 kts | 258° |
| 2026-05-01 09:04 | 55.18655 | 84.63469 | 29042 ft | 402 kts | 256° |
| 2026-05-01 09:04 | 55.17905 | 84.58763 | 28766 ft | 400 kts | 256° |
| 2026-05-01 09:04 | 55.17155 | 84.54078 | 28498 ft | 399 kts | 256° |
| 2026-05-01 09:04 | 55.16407 | 84.49429 | 28157 ft | 395 kts | 256° |
| 2026-05-01 09:05 | 55.15663 | 84.44831 | 27574 ft | 391 kts | 256° |
| 2026-05-01 09:05 | 55.14926 | 84.40279 | 27032 ft | 387 kts | 256° |
| 2026-05-01 09:05 | 55.14194 | 84.35768 | 26484 ft | 384 kts | 256° |
| 2026-05-01 09:05 | 55.13469 | 84.31298 | 25954 ft | 380 kts | 256° |
| 2026-05-01 09:06 | 55.12747 | 84.26869 | 25419 ft | 377 kts | 256° |
| 2026-05-01 09:06 | 55.12049 | 84.22513 | 24925 ft | 379 kts | 256° |
| 2026-05-01 09:06 | 55.11335 | 84.18079 | 24431 ft | 379 kts | 256° |
| 2026-05-01 09:06 | 55.10613 | 84.13659 | 23947 ft | 377 kts | 256° |
| 2026-05-01 09:07 | 55.09889 | 84.09270 | 23429 ft | 375 kts | 256° |
| 2026-05-01 09:07 | 55.09166 | 84.04909 | 22857 ft | 373 kts | 256° |
| 2026-05-01 09:07 | 55.08430 | 84.00587 | 22303 ft | 370 kts | 255° |
| 2026-05-01 09:07 | 55.07699 | 83.96292 | 21759 ft | 368 kts | 255° |
| 2026-05-01 09:08 | 55.06990 | 83.92023 | 21221 ft | 365 kts | 256° |
| 2026-05-01 09:08 | 55.06288 | 83.87761 | 20695 ft | 363 kts | 255° |
| 2026-05-01 09:08 | 55.05592 | 83.83527 | 19983 ft | 365 kts | 255° |
| 2026-05-01 09:08 | 55.04880 | 83.79213 | 19183 ft | 372 kts | 255° |
| 2026-05-01 09:09 | 55.04169 | 83.74942 | 18619 ft | 371 kts | 255° |
| 2026-05-01 09:09 | 55.03446 | 83.70634 | 18071 ft | 369 kts | 255° |
| 2026-05-01 09:09 | 55.02723 | 83.66351 | 17502 ft | 367 kts | 255° |
| 2026-05-01 09:09 | 55.02003 | 83.62106 | 16964 ft | 364 kts | 255° |
| 2026-05-01 09:10 | 55.01287 | 83.57887 | 16414 ft | 362 kts | 255° |
| 2026-05-01 09:10 | 55.00574 | 83.53683 | 15887 ft | 360 kts | 255° |
| 2026-05-01 09:10 | 54.99868 | 83.49518 | 15369 ft | 359 kts | 255° |
| 2026-05-01 09:10 | 54.99161 | 83.45360 | 14858 ft | 357 kts | 255° |
| 2026-05-01 09:11 | 54.98456 | 83.41229 | 14354 ft | 355 kts | 254° |
| 2026-05-01 09:11 | 54.97754 | 83.37121 | 13856 ft | 353 kts | 254° |
| 2026-05-01 09:11 | 54.97052 | 83.33028 | 13281 ft | 352 kts | 254° |
| 2026-05-01 09:11 | 54.96352 | 83.28952 | 12710 ft | 351 kts | 254° |
| 2026-05-01 09:12 | 54.95651 | 83.24886 | 12146 ft | 349 kts | 254° |
| 2026-05-01 09:12 | 54.94951 | 83.20851 | 11582 ft | 347 kts | 254° |
| 2026-05-01 09:12 | 54.94263 | 83.16896 | 11055 ft | 345 kts | 254° |
| 2026-05-01 09:12 | 54.93578 | 83.12894 | 10517 ft | 343 kts | 256° |
| 2026-05-01 09:13 | 54.93450 | 83.08793 | 9992 ft | 341 kts | 281° |
| 2026-05-01 09:13 | 54.94402 | 83.05056 | 9418 ft | 340 kts | 304° |
| 2026-05-01 09:13 | 54.95870 | 83.01850 | 8858 ft | 339 kts | 311° |
| 2026-05-01 09:13 | 54.97502 | 82.98886 | 8294 ft | 338 kts | 314° |
| 2026-05-01 09:14 | 54.99182 | 82.96030 | 7531 ft | 336 kts | 315° |
| 2026-05-01 09:14 | 55.00850 | 82.93202 | 6564 ft | 334 kts | 315° |
| 2026-05-01 09:14 | 55.02441 | 82.90261 | 5507 ft | 332 kts | 304° |
| 2026-05-01 09:14 | 55.03305 | 82.86576 | 4451 ft | 330 kts | 278° |
| 2026-05-01 09:15 | 55.03375 | 82.82609 | 3388 ft | 330 kts | 263° |